createdAt,value
2022-10-09T00:00:43.671Z,525.1
2022-10-09T00:01:46.139Z,524.7
2022-10-09T00:02:50.778Z,525.2
2022-10-09T00:03:53.434Z,525
2022-10-09T00:04:55.920Z,525.4
2022-10-09T00:05:58.135Z,525.1
2022-10-09T00:07:00.050Z,524.8
2022-10-09T00:08:02.250Z,524.9
2022-10-09T00:09:04.718Z,525.3
2022-10-09T00:10:06.925Z,524.8
2022-10-09T00:11:09.401Z,525.1
2022-10-09T00:12:11.866Z,525.2
2022-10-09T00:13:14.065Z,525.2
2022-10-09T00:14:15.988Z,525.6
2022-10-09T00:15:18.514Z,525.3
2022-10-09T00:16:21.017Z,525.5
2022-10-09T00:17:23.253Z,525.8
2022-10-09T00:18:25.725Z,525.7
2022-10-09T00:19:28.216Z,526
2022-10-09T00:20:30.413Z,526
2022-10-09T00:21:32.602Z,526.6
2022-10-09T00:22:35.085Z,526.5
2022-10-09T00:23:37.551Z,526.6
2022-10-09T00:24:40.023Z,526.4
2022-10-09T00:25:42.194Z,526.3
2022-10-09T00:26:44.671Z,526.2
2022-10-09T00:27:46.876Z,526.2
2022-10-09T00:28:49.587Z,526.1
2022-10-09T00:29:51.839Z,525.9
2022-10-09T00:30:54.825Z,526.4
2022-10-09T00:31:57.030Z,526.4
2022-10-09T00:32:58.959Z,526.5
2022-10-09T00:34:01.152Z,526.6
2022-10-09T00:35:03.075Z,526.9
2022-10-09T00:36:05.309Z,527.1
2022-10-09T00:37:07.793Z,527.1
2022-10-09T00:38:09.993Z,527
2022-10-09T00:39:12.164Z,527.2
2022-10-09T00:40:14.648Z,526.9
2022-10-09T00:41:16.566Z,527.1
2022-10-09T00:42:19.039Z,527.2
2022-10-09T00:43:21.508Z,527.4
2022-10-09T00:44:24.006Z,527.5
2022-10-09T00:45:26.472Z,527.7
2022-10-09T00:46:29.492Z,527.8
2022-10-09T00:47:31.988Z,528
2022-10-09T00:48:34.476Z,527.8
2022-10-09T00:49:36.946Z,527.9
2022-10-09T00:50:39.435Z,527.6
2022-10-09T00:51:41.910Z,527.8
2022-10-09T00:52:44.103Z,528
2022-10-09T00:53:46.572Z,528.2
2022-10-09T00:54:48.776Z,528.4
2022-10-09T00:55:51.243Z,528.4
2022-10-09T00:56:53.717Z,528.7
2022-10-09T00:57:56.181Z,528.4
2022-10-09T00:58:58.657Z,528.4
2022-10-09T01:00:00.883Z,528.3
2022-10-09T01:01:03.674Z,528.3
2022-10-09T01:02:06.554Z,528.5
2022-10-09T01:03:08.503Z,528.4
2022-10-09T01:04:10.970Z,528.6
2022-10-09T01:05:13.164Z,529
2022-10-09T01:06:15.653Z,529.2
2022-10-09T01:07:17.848Z,528.9
2022-10-09T01:08:20.315Z,528.9
2022-10-09T01:09:22.492Z,529.2
2022-10-09T01:10:24.686Z,528.7
2022-10-09T01:11:27.168Z,529
2022-10-09T01:12:29.637Z,529.2
2022-10-09T01:13:32.105Z,529.1
2022-10-09T01:14:34.021Z,529.1
2022-10-09T01:15:36.357Z,529.3
2022-10-09T01:16:38.826Z,529.4
2022-10-09T01:17:41.356Z,529.6
2022-10-09T01:18:43.826Z,529.9
2022-10-09T01:19:46.375Z,530
2022-10-09T01:20:48.282Z,529.9
2022-10-09T01:21:50.782Z,530.1
2022-10-09T01:22:53.406Z,529.8
2022-10-09T01:23:55.593Z,529.8
2022-10-09T01:24:57.798Z,530.2
2022-10-09T01:25:59.999Z,530.2
2022-10-09T01:27:02.467Z,530.4
2022-10-09T01:28:05.255Z,530.2
2022-10-09T01:29:07.471Z,530.2
2022-10-09T01:30:09.680Z,530.3
2022-10-09T01:31:11.957Z,530.5
2022-10-09T01:32:13.891Z,530.6
2022-10-09T01:33:16.431Z,530.6
2022-10-09T01:34:18.356Z,530.8
2022-10-09T01:35:20.535Z,530.8
2022-10-09T01:36:23.003Z,530.8
2022-10-09T01:37:25.522Z,530.8
2022-10-09T01:38:27.990Z,531.1
2022-10-09T01:39:30.174Z,531.1
2022-10-09T01:40:32.343Z,531
2022-10-09T01:41:34.549Z,530.9
2022-10-09T01:42:36.763Z,530.9
2022-10-09T01:43:38.691Z,531.4
2022-10-09T01:44:41.339Z,531
2022-10-09T01:45:43.272Z,531.3
2022-10-09T01:46:45.505Z,531.5
2022-10-09T01:47:47.427Z,531.1
2022-10-09T01:48:50.657Z,531.3
2022-10-09T01:49:52.847Z,531.1
2022-10-09T01:50:54.756Z,531.5
2022-10-09T01:51:57.223Z,531.5
2022-10-09T01:52:59.430Z,531.7
2022-10-09T01:54:01.636Z,532.2
2022-10-09T01:55:03.839Z,532.4
2022-10-09T01:56:06.038Z,532.2
2022-10-09T01:57:08.234Z,532.5
2022-10-09T01:58:10.427Z,532.3
2022-10-09T02:00:17.901Z,533
2022-10-09T02:01:20.529Z,533.3
2022-10-09T02:02:23.726Z,533.3
2022-10-09T02:03:26.237Z,533.3
2022-10-09T02:04:28.518Z,533.5
2022-10-09T02:05:30.709Z,533.5
2022-10-09T02:06:32.626Z,533.6
2022-10-09T02:07:35.537Z,533.4
2022-10-09T02:08:38.047Z,533.7
2022-10-09T02:09:40.264Z,533.7
2022-10-09T02:10:42.732Z,533.9
2022-10-09T02:11:44.937Z,534.1
2022-10-09T02:12:48.850Z,534.4
2022-10-09T02:13:51.452Z,534.1
2022-10-09T02:14:53.926Z,534.7
2022-10-09T02:15:56.797Z,534.8
2022-10-09T02:16:59.030Z,534.6
2022-10-09T02:18:00.974Z,534.9
2022-10-09T02:19:03.176Z,534.7
2022-10-09T02:20:05.453Z,534.9
2022-10-09T02:21:07.926Z,534.8
2022-10-09T02:22:09.549Z,535.1
2022-10-09T02:23:11.190Z,535.1
2022-10-09T02:24:13.395Z,535.2
2022-10-09T02:25:15.875Z,535.7
2022-10-09T02:26:18.074Z,535.8
2022-10-09T02:27:20.543Z,535.6
2022-10-09T02:28:22.558Z,535.7
2022-10-09T02:29:24.801Z,535.7
2022-10-09T02:30:27.273Z,535.7
2022-10-09T02:31:30.033Z,535.6
2022-10-09T02:32:31.974Z,536
2022-10-09T02:33:34.468Z,535.8
2022-10-09T02:34:36.946Z,535.9
2022-10-09T02:35:39.693Z,535.7
2022-10-09T02:36:41.885Z,535.9
2022-10-09T02:37:44.083Z,535.9
2022-10-09T02:38:46.555Z,536.1
2022-10-09T02:39:49.057Z,536.3
2022-10-09T02:40:51.271Z,536.4
2022-10-09T02:41:53.744Z,536.2
2022-10-09T02:42:55.932Z,536
2022-10-09T02:43:58.455Z,535.9
2022-10-09T02:45:00.637Z,535.9
2022-10-09T02:46:02.844Z,535.9
2022-10-09T02:47:05.065Z,535.6
2022-10-09T02:48:07.240Z,535.3
2022-10-09T02:49:09.722Z,535.5
2022-10-09T02:50:12.216Z,535.4
2022-10-09T02:51:14.457Z,535.6
2022-10-09T02:52:16.936Z,535.7
2022-10-09T02:53:19.403Z,535.9
2022-10-09T02:54:21.025Z,535.7
2022-10-09T02:55:23.528Z,535.9
2022-10-09T02:56:25.992Z,535.8
2022-10-09T02:57:28.191Z,536
2022-10-09T02:58:30.110Z,536
2022-10-09T02:59:32.038Z,536.4
2022-10-09T03:00:34.606Z,536.3
2022-10-09T03:01:37.091Z,536.5
2022-10-09T03:02:40.160Z,536.5
2022-10-09T03:03:42.139Z,536.7
2022-10-09T03:04:44.700Z,536.4
2022-10-09T03:05:46.891Z,536.6
2022-10-09T03:06:49.448Z,536.5
2022-10-09T03:07:51.374Z,537
2022-10-09T03:08:53.846Z,536.6
2022-10-09T03:09:56.040Z,536.6
2022-10-09T03:10:58.523Z,536.6
2022-10-09T03:12:00.991Z,537.2
2022-10-09T03:13:03.467Z,537.2
2022-10-09T03:14:05.375Z,537.1
2022-10-09T03:15:07.338Z,537.2
2022-10-09T03:16:09.318Z,537.2
2022-10-09T03:17:11.829Z,537.2
2022-10-09T03:18:13.753Z,537.3
2022-10-09T03:19:15.942Z,537.5
2022-10-09T03:20:18.152Z,537.4
2022-10-09T03:21:20.639Z,537.7
2022-10-09T03:22:22.875Z,537.7
2022-10-09T03:23:25.342Z,538
2022-10-09T03:24:27.541Z,538
2022-10-09T03:25:30.017Z,538
2022-10-09T03:26:32.501Z,537.9
2022-10-09T03:27:34.963Z,537.9
2022-10-09T03:28:37.834Z,538.2
2022-10-09T03:29:40.089Z,538.4
2022-10-09T03:30:42.571Z,538.3
2022-10-09T03:32:51.633Z,538
2022-10-09T03:33:54.176Z,538.4
2022-10-09T03:34:56.652Z,538.2
2022-10-09T03:35:59.130Z,538.7
2022-10-09T03:37:01.332Z,538.5
2022-10-09T03:38:03.875Z,538.6
2022-10-09T03:39:06.344Z,538.6
2022-10-09T03:40:08.539Z,538.3
2022-10-09T03:41:11.003Z,538.5
2022-10-09T03:42:13.510Z,538.4
2022-10-09T03:43:15.422Z,538.5
2022-10-09T03:44:17.898Z,538.6
2022-10-09T03:45:20.408Z,538.3
2022-10-09T03:46:22.960Z,538.7
2022-10-09T03:47:25.457Z,538.8
2022-10-09T03:48:27.663Z,538.7
2022-10-09T03:49:29.853Z,538.2
2022-10-09T03:50:32.073Z,538.1
2022-10-09T03:51:34.553Z,537.8
2022-10-09T03:52:36.457Z,538
2022-10-09T03:53:38.997Z,537.9
2022-10-09T03:54:41.469Z,537.7
2022-10-09T03:55:43.940Z,537.7
2022-10-09T03:56:46.414Z,537.7
2022-10-09T03:57:48.909Z,537.7
2022-10-09T03:58:51.374Z,537.5
2022-10-09T03:59:53.274Z,538
2022-10-09T04:00:55.954Z,537.9
2022-10-09T04:01:57.934Z,537.7
2022-10-09T04:03:00.932Z,537.3
2022-10-09T04:04:03.437Z,537.4
2022-10-09T04:05:05.351Z,537.4
2022-10-09T04:06:07.826Z,537.7
2022-10-09T04:07:10.024Z,537.5
2022-10-09T04:08:12.490Z,537.6
2022-10-09T04:09:14.725Z,538.2
2022-10-09T04:10:16.660Z,537.9
2022-10-09T04:11:18.578Z,538.1
2022-10-09T04:12:21.049Z,538.5
2022-10-09T04:13:23.557Z,537.9
2022-10-09T04:14:25.730Z,538.3
2022-10-09T04:15:28.155Z,538.4
2022-10-09T04:16:30.890Z,538.8
2022-10-09T04:17:33.439Z,538.5
2022-10-09T04:18:35.632Z,539
2022-10-09T04:19:37.538Z,538.6
2022-10-09T04:20:40.018Z,538.7
2022-10-09T04:21:42.213Z,539
2022-10-09T04:22:44.432Z,538.9
2022-10-09T04:23:46.913Z,538.8
2022-10-09T04:24:49.460Z,538.4
2022-10-09T04:25:51.653Z,538.9
2022-10-09T04:26:53.836Z,538.6
2022-10-09T04:27:56.333Z,538.7
2022-10-09T04:28:58.821Z,538.7
2022-10-09T04:30:01.029Z,538.6
2022-10-09T04:31:03.505Z,538.9
2022-10-09T04:32:05.978Z,538.6
2022-10-09T04:34:13.163Z,539.1
2022-10-09T04:35:15.343Z,539.3
2022-10-09T04:36:17.817Z,538.6
2022-10-09T04:37:20.006Z,538.9
2022-10-09T04:38:22.502Z,538.5
2022-10-09T04:39:24.956Z,538.5
2022-10-09T04:40:27.556Z,538
2022-10-09T04:41:29.467Z,538.2
2022-10-09T04:42:31.940Z,538.4
2022-10-09T04:43:34.409Z,538.1
2022-10-09T04:44:36.623Z,538.4
2022-10-09T04:45:39.322Z,539.2
2022-10-09T04:46:41.840Z,538.8
2022-10-09T04:47:44.031Z,539.1
2022-10-09T04:48:46.509Z,539.8
2022-10-09T04:49:48.702Z,540
2022-10-09T04:50:51.178Z,539.6
2022-10-09T04:51:53.376Z,539.7
2022-10-09T04:52:55.850Z,539
2022-10-09T04:55:03.059Z,539.6
2022-10-09T04:56:05.317Z,539.2
2022-10-09T04:57:07.512Z,539.8
2022-10-09T04:58:09.980Z,539.9
2022-10-09T04:59:12.193Z,540
2022-10-09T05:00:14.695Z,539.9
2022-10-09T05:01:17.321Z,539.9
2022-10-09T05:02:20.182Z,540.7
2022-10-09T05:03:22.727Z,540.9
2022-10-09T05:04:24.927Z,540.7
2022-10-09T05:05:27.123Z,541
2022-10-09T05:06:29.612Z,540.9
2022-10-09T05:07:32.081Z,541
2022-10-09T05:08:34.292Z,541.3
2022-10-09T05:09:36.763Z,541.2
2022-10-09T05:10:39.245Z,541
2022-10-09T05:12:47.452Z,540.9
2022-10-09T05:13:49.821Z,540.7
2022-10-09T05:14:52.294Z,541.3
2022-10-09T05:15:54.783Z,541
2022-10-09T05:18:02.282Z,540.7
2022-10-09T05:19:04.756Z,540.6
2022-10-09T05:20:06.967Z,540.4
2022-10-09T05:21:08.878Z,541
2022-10-09T05:22:11.084Z,540.7
2022-10-09T05:23:13.271Z,541.2
2022-10-09T05:24:15.195Z,540.9
2022-10-09T05:25:17.656Z,541.5
2022-10-09T05:26:20.166Z,541
2022-10-09T05:27:22.634Z,540.7
2022-10-09T05:28:25.641Z,541.2
2022-10-09T05:29:27.887Z,541
2022-10-09T05:30:29.805Z,540.9
2022-10-09T05:31:32.311Z,541.2
2022-10-09T05:32:34.816Z,541.1
2022-10-09T05:33:37.302Z,540.8
2022-10-09T05:34:39.787Z,540.9
2022-10-09T05:35:41.965Z,541.1
2022-10-09T05:36:43.871Z,541.1
2022-10-09T05:37:46.344Z,541.1
2022-10-09T05:38:48.878Z,540.6
2022-10-09T05:39:51.056Z,540.9
2022-10-09T05:40:53.531Z,541.1
2022-10-09T05:41:55.747Z,541.2
2022-10-09T05:42:57.989Z,541.2
2022-10-09T05:44:00.532Z,541
2022-10-09T05:45:02.748Z,541.3
2022-10-09T05:46:05.344Z,540.9
2022-10-09T05:47:07.582Z,540.6
2022-10-09T05:48:09.778Z,541.3
2022-10-09T05:49:12.319Z,541.4
2022-10-09T05:50:14.513Z,541.2
2022-10-09T05:51:16.142Z,541
2022-10-09T05:52:18.326Z,541.1
2022-10-09T05:53:20.804Z,541.2
2022-10-09T05:54:23.016Z,541.2
2022-10-09T05:55:25.489Z,541.4
2022-10-09T05:56:27.122Z,541.5
2022-10-09T05:57:29.076Z,541.3
2022-10-09T05:58:30.993Z,541.5
2022-10-09T05:59:32.953Z,541.3
2022-10-09T06:00:35.420Z,541.4
2022-10-09T06:01:38.100Z,541.2
2022-10-09T06:02:40.988Z,541.5
2022-10-09T06:03:43.197Z,541.7
2022-10-09T06:04:45.656Z,541.7
2022-10-09T06:05:47.847Z,541.8
2022-10-09T06:06:50.104Z,541.6
2022-10-09T06:07:52.037Z,541.9
2022-10-09T06:08:54.500Z,541.9
2022-10-09T06:09:56.709Z,541.9
2022-10-09T06:10:58.912Z,541.8
2022-10-09T06:12:01.386Z,541.9
2022-10-09T06:13:03.886Z,542.1
2022-10-09T06:14:05.786Z,541.9
2022-10-09T06:15:08.094Z,541.8
2022-10-09T06:16:10.774Z,541.8
2022-10-09T06:17:12.994Z,541.8
2022-10-09T06:18:15.481Z,541.4
2022-10-09T06:19:17.955Z,541.2
2022-10-09T06:20:20.668Z,541.4
2022-10-09T06:21:22.863Z,541
2022-10-09T06:22:25.323Z,541.3
2022-10-09T06:23:27.817Z,541.4
2022-10-09T06:24:31.466Z,541.3
2022-10-09T06:25:33.955Z,541.1
2022-10-09T06:26:36.161Z,541.1
2022-10-09T06:27:38.362Z,540.7
2022-10-09T06:28:40.767Z,541
2022-10-09T06:29:43.335Z,540.2
2022-10-09T06:30:46.020Z,540.1
2022-10-09T06:31:48.505Z,540.3
2022-10-09T06:32:52.949Z,539.9
2022-10-09T06:33:55.175Z,539.7
2022-10-09T06:34:56.830Z,539.7
2022-10-09T06:37:04.347Z,539.6
2022-10-09T06:38:06.822Z,539.6
2022-10-09T06:39:09.317Z,539.7
2022-10-09T06:40:10.674Z,540
2022-10-09T06:41:12.868Z,539.9
2022-10-09T06:42:15.345Z,539.8
2022-10-09T06:43:17.551Z,540
2022-10-09T06:44:19.787Z,539.8
2022-10-09T06:45:21.707Z,539.7
2022-10-09T06:46:24.595Z,540.1
2022-10-09T06:47:26.812Z,539.8
2022-10-09T06:48:29.012Z,539.8
2022-10-09T06:49:31.231Z,539.7
2022-10-09T06:50:33.699Z,539.8
2022-10-09T06:51:35.804Z,539.5
2022-10-09T06:52:37.949Z,539.9
2022-10-09T06:53:40.412Z,539.4
2022-10-09T06:54:42.325Z,539.2
2022-10-09T06:55:44.535Z,539.1
2022-10-09T06:56:46.723Z,539
2022-10-09T06:57:49.195Z,538.8
2022-10-09T06:58:51.397Z,539
2022-10-09T06:59:53.910Z,539
2022-10-09T07:00:55.843Z,538.4
2022-10-09T07:01:59.261Z,538.7
2022-10-09T07:03:02.375Z,538.6
2022-10-09T07:04:04.325Z,538.7
2022-10-09T07:05:06.280Z,538.5
2022-10-09T07:06:08.832Z,539
2022-10-09T07:07:11.297Z,538.8
2022-10-09T07:08:13.502Z,538.7
2022-10-09T07:09:15.707Z,538.7
2022-10-09T07:11:26.196Z,538.7
2022-10-09T07:12:28.396Z,538.8
2022-10-09T07:13:30.344Z,539
2022-10-09T07:14:32.550Z,538.4
2022-10-09T07:15:35.239Z,538.4
2022-10-09T07:16:37.722Z,538.6
2022-10-09T07:17:40.008Z,538.4
2022-10-09T07:18:42.201Z,538
2022-10-09T07:19:44.676Z,538.5
2022-10-09T07:20:46.863Z,538.3
2022-10-09T07:21:49.142Z,538.8
2022-10-09T07:22:52.708Z,538.5
2022-10-09T07:23:54.900Z,538.6
2022-10-09T07:24:56.252Z,538.7
2022-10-09T07:25:58.723Z,538.6
2022-10-09T07:27:00.930Z,538.5
2022-10-09T07:28:03.837Z,538.7
2022-10-09T07:29:06.312Z,538.7
2022-10-09T07:30:08.798Z,538.5
2022-10-09T07:31:11.526Z,538.5
2022-10-09T07:32:13.483Z,538.4
2022-10-09T07:33:16.018Z,538.8
2022-10-09T07:34:18.215Z,538.6
2022-10-09T07:35:20.685Z,538.7
2022-10-09T07:36:23.194Z,539.1
2022-10-09T07:37:25.170Z,538.8
2022-10-09T07:38:27.650Z,539
2022-10-09T07:39:29.568Z,538.5
2022-10-09T07:40:32.054Z,538.6
2022-10-09T07:41:33.974Z,538.4
2022-10-09T07:42:35.612Z,538.4
2022-10-09T07:43:37.278Z,538.6
2022-10-09T07:44:39.472Z,538.5
2022-10-09T07:45:41.399Z,538.4
2022-10-09T07:46:44.262Z,538.7
2022-10-09T07:47:46.786Z,538.8
2022-10-09T07:48:49.335Z,538.7
2022-10-09T07:49:51.544Z,538.6
2022-10-09T07:50:54.025Z,538.9
2022-10-09T07:51:56.522Z,538.6
2022-10-09T07:52:58.735Z,538.5
2022-10-09T07:54:01.322Z,538.4
2022-10-09T07:55:03.827Z,538.8
2022-10-09T07:56:06.305Z,538.6
2022-10-09T07:57:08.781Z,538.4
2022-10-09T07:58:10.977Z,538.2
2022-10-09T07:59:13.459Z,538.5
2022-10-09T08:00:15.425Z,538.6
2022-10-09T08:02:22.880Z,538.4
2022-10-09T08:03:25.075Z,538.4
2022-10-09T08:04:27.375Z,538.2
2022-10-09T08:05:29.847Z,538.3
2022-10-09T08:06:32.478Z,538.3
2022-10-09T08:08:39.679Z,538.7
2022-10-09T08:09:42.145Z,538.8
2022-10-09T08:10:44.346Z,538.3
2022-10-09T08:11:46.539Z,538.7
2022-10-09T08:12:51.033Z,538.8
2022-10-09T08:13:53.991Z,539.2
2022-10-09T08:14:56.462Z,538.9
2022-10-09T08:15:59.355Z,539
2022-10-09T08:17:01.590Z,539.4
2022-10-09T08:18:04.075Z,539.4
2022-10-09T08:19:06.256Z,539.4
2022-10-09T08:20:08.510Z,539.4
2022-10-09T08:21:10.714Z,539.2
2022-10-09T08:22:12.902Z,539.1
2022-10-09T08:23:15.120Z,539.2
2022-10-09T08:24:17.315Z,539.2
2022-10-09T08:25:19.226Z,539.4
2022-10-09T08:26:21.722Z,539.7
2022-10-09T08:27:24.195Z,539.1
2022-10-09T08:28:27.132Z,539.2
2022-10-09T08:29:29.095Z,539.2
2022-10-09T08:30:30.750Z,539.3
2022-10-09T08:31:33.985Z,539.3
2022-10-09T08:32:36.510Z,539.4
2022-10-09T08:33:39.000Z,540
2022-10-09T08:34:40.920Z,539.8
2022-10-09T08:35:43.214Z,540
2022-10-09T08:36:45.690Z,540.1
2022-10-09T08:37:47.598Z,540.1
2022-10-09T08:38:50.118Z,540.2
2022-10-09T08:39:52.329Z,540
2022-10-09T08:41:59.803Z,540.3
2022-10-09T08:43:02.288Z,540.9
2022-10-09T08:44:03.926Z,540.7
2022-10-09T08:45:06.402Z,540.9
2022-10-09T08:46:08.602Z,540.7
2022-10-09T08:47:11.112Z,540.9
2022-10-09T08:48:13.034Z,541
2022-10-09T08:49:15.518Z,541.3
2022-10-09T08:50:17.727Z,540.4
2022-10-09T08:51:20.258Z,541.1
2022-10-09T08:52:22.482Z,541.4
2022-10-09T08:53:24.950Z,541.5
2022-10-09T08:54:27.167Z,541.6
2022-10-09T08:55:29.644Z,541.7
2022-10-09T08:56:31.887Z,541.7
2022-10-09T08:57:34.106Z,541.6
2022-10-09T08:58:36.322Z,542.1
2022-10-09T08:59:38.545Z,542.6
2022-10-09T09:00:40.476Z,542.1
2022-10-09T09:01:43.015Z,542.7
2022-10-09T09:02:45.309Z,542.7
2022-10-09T09:03:46.997Z,543
2022-10-09T09:05:54.484Z,543
2022-10-09T09:06:56.752Z,543.1
2022-10-09T09:07:59.223Z,543.2
2022-10-09T09:09:01.416Z,543.1
2022-10-09T09:10:03.922Z,543.4
2022-10-09T09:11:06.126Z,543.1
2022-10-09T09:12:08.676Z,543.4
2022-10-09T09:13:10.075Z,543.3
2022-10-09T09:14:12.294Z,543.8
2022-10-09T09:15:14.501Z,543.4
2022-10-09T09:16:17.370Z,543.9
2022-10-09T09:17:19.590Z,544
2022-10-09T09:18:22.081Z,544.1
2022-10-09T09:19:24.587Z,543.8
2022-10-09T09:20:26.810Z,543.8
2022-10-09T09:21:29.301Z,543.9
2022-10-09T09:22:31.888Z,544.3
2022-10-09T09:23:33.543Z,544.2
2022-10-09T09:24:35.731Z,543.7
2022-10-09T09:25:38.246Z,544.2
2022-10-09T09:26:40.169Z,544
2022-10-09T09:27:42.653Z,544.1
2022-10-09T09:28:45.750Z,544
2022-10-09T09:29:47.716Z,543.8
2022-10-09T09:30:49.837Z,544.1
2022-10-09T09:31:52.065Z,544.3
2022-10-09T09:32:54.288Z,544
2022-10-09T09:33:56.763Z,543.9
2022-10-09T09:34:58.981Z,544.4
2022-10-09T09:36:01.182Z,544.1
2022-10-09T09:37:03.681Z,544.4
2022-10-09T09:38:05.942Z,544.3
2022-10-09T09:41:18.430Z,544.5
2022-10-09T09:42:20.908Z,544.7
2022-10-09T09:43:23.132Z,544.5
2022-10-09T09:44:25.600Z,544.6
2022-10-09T09:45:27.561Z,544.1
2022-10-09T09:46:30.679Z,544.3
2022-10-09T09:47:32.957Z,544.5
2022-10-09T09:48:35.464Z,544.9
2022-10-09T09:49:37.978Z,544.9
2022-10-09T09:51:45.196Z,544.4
2022-10-09T09:52:47.138Z,545
2022-10-09T09:53:49.124Z,544.9
2022-10-09T09:54:51.335Z,545.2
2022-10-09T09:55:53.546Z,545.1
2022-10-09T09:58:00.770Z,545.2
2022-10-09T09:59:02.707Z,545.2
2022-10-09T10:00:04.956Z,544.9
2022-10-09T10:01:07.933Z,545.1
2022-10-09T10:02:10.552Z,545.4
2022-10-09T10:03:13.036Z,545.4
2022-10-09T10:04:15.296Z,545.1
2022-10-09T10:05:17.507Z,545.7
2022-10-09T10:06:19.759Z,545.2
2022-10-09T10:07:21.950Z,545.7
2022-10-09T10:08:24.187Z,545.3
2022-10-09T10:09:26.730Z,545.6
2022-10-09T10:10:28.456Z,545.6
2022-10-09T10:11:30.653Z,545.6
2022-10-09T10:12:32.872Z,545.4
2022-10-09T10:13:35.361Z,545.6
2022-10-09T10:14:37.838Z,545.7
2022-10-09T10:15:40.052Z,545.6
2022-10-09T10:16:42.090Z,546.1
2022-10-09T10:17:44.557Z,546.3
2022-10-09T10:18:46.736Z,546.3
2022-10-09T10:19:49.219Z,546.5
2022-10-09T10:20:51.696Z,546.8
2022-10-09T10:21:53.886Z,546.9
2022-10-09T10:22:56.112Z,546.7
2022-10-09T10:23:58.804Z,546.9
2022-10-09T10:25:01.375Z,547.3
2022-10-09T10:26:03.568Z,547.3
2022-10-09T10:27:06.041Z,547.5
2022-10-09T10:28:08.651Z,547.2
2022-10-09T10:29:10.906Z,548
2022-10-09T10:30:13.110Z,548.1
2022-10-09T10:31:15.798Z,547.8
2022-10-09T10:32:18.003Z,548.2
2022-10-09T10:33:20.256Z,548.3
2022-10-09T10:34:22.163Z,547.6
2022-10-09T10:35:24.340Z,548.4
2022-10-09T10:36:26.816Z,548.2
2022-10-09T10:37:29.307Z,548.3
2022-10-09T10:38:31.776Z,548.4
2022-10-09T10:39:34.003Z,548.5
2022-10-09T10:40:36.237Z,548.5
2022-10-09T10:41:38.434Z,548.8
2022-10-09T10:42:40.358Z,548.9
2022-10-09T10:43:42.849Z,549.1
2022-10-09T10:44:45.326Z,549.2
2022-10-09T10:45:47.528Z,549.3
2022-10-09T10:46:50.494Z,549.2
2022-10-09T10:47:54.303Z,549.3
2022-10-09T10:48:56.493Z,549.7
2022-10-09T10:49:58.418Z,549.9
2022-10-09T10:51:00.345Z,549.3
2022-10-09T10:52:02.814Z,549.9
2022-10-09T10:53:04.471Z,549.7
2022-10-09T10:54:06.366Z,549.4
2022-10-09T10:55:08.871Z,549.5
2022-10-09T10:56:11.547Z,549.7
2022-10-09T10:57:14.073Z,549.5
2022-10-09T10:58:16.554Z,549.6
2022-10-09T10:59:18.529Z,549.8
2022-10-09T11:00:20.752Z,550
2022-10-09T11:01:23.791Z,549.8
2022-10-09T11:02:26.316Z,549.9
2022-10-09T11:03:29.378Z,550.1
2022-10-09T11:04:31.367Z,550.2
2022-10-09T11:05:33.849Z,549.9
2022-10-09T11:06:36.316Z,549.9
2022-10-09T11:07:38.524Z,550
2022-10-09T11:08:41.009Z,549.8
2022-10-09T11:09:43.206Z,550
2022-10-09T11:10:45.403Z,550
2022-10-09T11:11:47.655Z,549.9
2022-10-09T11:12:50.388Z,549.9
2022-10-09T11:13:52.859Z,550
2022-10-09T11:14:55.081Z,550.1
2022-10-09T11:15:57.865Z,550.4
2022-10-09T11:16:59.805Z,550.2
2022-10-09T11:18:01.742Z,549.8
2022-10-09T11:19:03.942Z,550.1
2022-10-09T11:20:06.147Z,550.1
2022-10-09T11:21:08.086Z,550.2
2022-10-09T11:22:10.554Z,550.5
2022-10-09T11:23:13.029Z,549.9
2022-10-09T11:24:15.505Z,550.6
2022-10-09T11:25:17.984Z,550.6
2022-10-09T11:26:20.497Z,551
2022-10-09T11:27:23.032Z,550.5
2022-10-09T11:28:25.287Z,551
2022-10-09T11:29:27.788Z,551
2022-10-09T11:30:30.315Z,551
2022-10-09T11:31:33.106Z,551.1
2022-10-09T11:32:36.122Z,551
2022-10-09T11:33:38.529Z,551.5
2022-10-09T11:34:41.010Z,551.5
2022-10-09T11:35:43.499Z,551.2
2022-10-09T11:36:45.717Z,551.3
2022-10-09T11:37:49.941Z,551.4
2022-10-09T11:38:52.747Z,551.8
2022-10-09T11:39:55.219Z,552
2022-10-09T11:40:57.695Z,552
2022-10-09T11:42:00.189Z,552.1
2022-10-09T11:43:02.453Z,552.4
2022-10-09T11:44:04.367Z,552.5
2022-10-09T11:45:06.579Z,552.1
2022-10-09T11:46:09.321Z,552.7
2022-10-09T11:47:12.041Z,552.6
2022-10-09T11:48:14.537Z,552.9
2022-10-09T11:49:17.011Z,553.3
2022-10-09T11:50:19.504Z,552.7
2022-10-09T11:51:21.702Z,552.9
2022-10-09T11:52:23.902Z,553.1
2022-10-09T11:53:26.087Z,553.3
2022-10-09T11:54:28.295Z,553
2022-10-09T11:55:30.767Z,553.4
2022-10-09T11:56:33.249Z,553.8
2022-10-09T11:57:35.501Z,553.6
2022-10-09T11:58:38.060Z,554.1
2022-10-09T11:59:40.524Z,553.9
2022-10-09T12:00:42.731Z,554.2
2022-10-09T12:01:45.396Z,554
2022-10-09T12:02:48.269Z,554
2022-10-09T12:03:50.518Z,554.2
2022-10-09T12:05:57.987Z,554.7
2022-10-09T12:07:00.467Z,554.7
2022-10-09T12:08:02.942Z,554.7
2022-10-09T12:09:05.142Z,554.8
2022-10-09T12:10:07.086Z,554.5
2022-10-09T12:11:09.553Z,554.7
2022-10-09T12:12:12.023Z,554.8
2022-10-09T12:13:14.241Z,554.8
2022-10-09T12:15:21.345Z,555.6
2022-10-09T12:16:24.269Z,555.3
2022-10-09T12:17:26.883Z,555.6
2022-10-09T12:18:28.848Z,555.7
2022-10-09T12:19:31.360Z,555.5
2022-10-09T12:20:33.840Z,555.5
2022-10-09T12:21:36.060Z,555.8
2022-10-09T12:22:38.258Z,556.3
2022-10-09T12:23:40.473Z,555.8
2022-10-09T12:24:42.944Z,556.3
2022-10-09T12:25:45.158Z,556.2
2022-10-09T12:26:47.364Z,556.9
2022-10-09T12:27:49.834Z,556.9
2022-10-09T12:28:52.153Z,556.8
2022-10-09T12:29:54.679Z,557
2022-10-09T12:30:57.575Z,556.9
2022-10-09T12:32:00.118Z,556.8
2022-10-09T12:33:02.615Z,557.2
2022-10-09T12:34:04.819Z,557.3
2022-10-09T12:35:06.738Z,557.2
2022-10-09T12:36:08.934Z,557.5
2022-10-09T12:37:11.477Z,557.8
2022-10-09T12:38:13.686Z,557.9
2022-10-09T12:39:16.157Z,557.7
2022-10-09T12:40:18.678Z,558.2
2022-10-09T12:41:22.170Z,558
2022-10-09T12:42:24.553Z,558.6
2022-10-09T12:43:26.794Z,558.5
2022-10-09T12:44:28.440Z,558.3
2022-10-09T12:45:30.648Z,558.3
2022-10-09T12:46:33.007Z,558.7
2022-10-09T12:47:35.210Z,558.2
2022-10-09T12:48:37.704Z,559.1
2022-10-09T12:49:40.231Z,558.7
2022-10-09T12:50:42.160Z,559
2022-10-09T12:51:44.058Z,559.4
2022-10-09T12:52:46.611Z,559.4
2022-10-09T12:53:49.020Z,559.5
2022-10-09T12:54:51.231Z,559.8
2022-10-09T12:55:53.713Z,559.4
2022-10-09T12:56:56.197Z,559.9
2022-10-09T12:57:58.374Z,560.1
2022-10-09T12:59:00.342Z,560
2022-10-09T13:00:02.559Z,560.3
2022-10-09T13:01:05.709Z,560.3
2022-10-09T13:02:09.325Z,560.8
2022-10-09T13:03:11.599Z,560.8
2022-10-09T13:04:14.089Z,560.8
2022-10-09T13:05:16.275Z,560.9
2022-10-09T13:06:18.752Z,560.8
2022-10-09T13:07:20.957Z,560.9
2022-10-09T13:08:23.431Z,560.9
2022-10-09T13:09:25.337Z,561.3
2022-10-09T13:10:27.823Z,561.7
2022-10-09T13:11:30.037Z,561.4
2022-10-09T13:12:31.972Z,561.3
2022-10-09T13:13:34.163Z,560.8
2022-10-09T13:14:36.084Z,561.8
2022-10-09T13:15:38.309Z,561.5
2022-10-09T13:16:41.138Z,561.8
2022-10-09T13:17:43.748Z,561.6
2022-10-09T13:18:45.668Z,561.8
2022-10-09T13:19:47.881Z,562
2022-10-09T13:20:50.369Z,561.7
2022-10-09T13:21:52.839Z,562.2
2022-10-09T13:22:55.049Z,562
2022-10-09T13:23:57.243Z,561.8
2022-10-09T13:24:59.763Z,561.9
2022-10-09T13:27:06.411Z,562.3
2022-10-09T13:28:09.201Z,562.2
2022-10-09T13:29:11.721Z,562.3
2022-10-09T13:30:13.952Z,562.5
2022-10-09T13:31:16.564Z,561.8
2022-10-09T13:32:19.075Z,561.7
2022-10-09T13:33:21.647Z,562
2022-10-09T13:34:23.845Z,562.2
2022-10-09T13:35:26.084Z,561.6
2022-10-09T13:36:28.284Z,561.8
2022-10-09T13:37:30.199Z,562
2022-10-09T13:39:37.677Z,561.7
2022-10-09T13:40:39.881Z,562.4
2022-10-09T13:41:41.819Z,562.1
2022-10-09T13:42:43.743Z,562.4
2022-10-09T13:43:46.225Z,562.1
2022-10-09T13:44:48.425Z,562.3
2022-10-09T13:45:51.014Z,562.3
2022-10-09T13:46:53.561Z,562.8
2022-10-09T13:47:56.055Z,562.1
2022-10-09T13:48:58.326Z,562.3
2022-10-09T13:50:00.794Z,562.7
2022-10-09T13:51:03.294Z,562.6